Time;durP1;ratioP1;P1;durP2;ratioP2;P2;SDS_P1;SDS_P2;PMS_P1;PMS_P2;Temp;Humidity;BMP_temperature;BMP_pressure;BME280_temperature;BME280_humidity;BME280_pressure;Samples;Min_cycle;Max_cycle;Signal;HPM_P1;HPM_P2
2023/11/13 00:02:10;;;;;;;7.17;6.13;;;;;;;6.94;97.60;94935.38;6163256;23;20139;-78
2023/11/13 00:04:36;;;;;;;9.07;7.30;;;;;;;6.98;96.90;94935.88;6187140;23;20142;-78
2023/11/13 00:07:01;;;;;;;7.57;5.77;;;;;;;6.94;97.21;94931.97;6162168;23;20191;-79
2023/11/13 00:09:27;;;;;;;7.00;6.30;;;;;;;7.00;97.21;94923.69;6162009;23;20154;-79
2023/11/13 00:11:53;;;;;;;12.23;8.87;;;;;;;7.04;96.95;94923.25;6162624;23;20158;-78
2023/11/13 00:14:18;;;;;;;9.37;7.70;;;;;;;7.07;95.96;94929.91;6186346;23;20162;-78
2023/11/13 00:16:43;;;;;;;9.53;7.97;;;;;;;7.02;96.46;94917.41;6186318;23;20223;-79
2023/11/13 00:19:09;;;;;;;11.13;6.63;;;;;;;7.05;96.88;94922.28;6160823;23;20167;-79
2023/11/13 00:21:34;;;;;;;9.57;6.20;;;;;;;7.10;97.19;94919.28;6147429;23;20166;-79
2023/11/13 00:23:59;;;;;;;6.57;5.87;;;;;;;7.08;97.01;94927.19;6186875;23;20175;-78
2023/11/13 00:26:25;;;;;;;10.30;8.00;;;;;;;7.09;96.86;94928.00;6212281;23;20150;-79
2023/11/13 00:28:50;;;;;;;9.60;8.60;;;;;;;7.08;97.19;94922.03;6162661;23;20148;-79
2023/11/13 00:31:16;;;;;;;7.93;6.90;;;;;;;7.16;97.25;94923.09;6187324;23;20174;-78
2023/11/13 00:33:41;;;;;;;9.13;7.97;;;;;;;7.15;97.57;94922.25;6162747;23;20166;-78
2023/11/13 00:36:07;;;;;;;9.23;6.97;;;;;;;7.14;97.13;94927.56;6167678;23;20583;-79
2023/11/13 00:38:32;;;;;;;6.77;5.57;;;;;;;7.16;97.34;94921.31;6157523;23;20212;-80
2023/11/13 00:40:58;;;;;;;7.97;5.73;;;;;;;7.20;96.92;94919.25;6156754;23;20174;-79
2023/11/13 00:43:24;;;;;;;7.77;5.23;;;;;;;7.11;96.74;94923.50;6132404;23;20244;-79
2023/11/13 00:45:49;;;;;;;8.90;6.00;;;;;;;7.15;96.92;94922.25;6156479;23;20159;-80
2023/11/13 00:48:15;;;;;;;8.20;5.97;;;;;;;7.18;96.78;94918.59;6132684;23;20157;-80
2023/11/13 00:50:40;;;;;;;8.87;5.50;;;;;;;7.21;97.02;94915.72;6132388;23;20256;-78
2023/11/13 00:53:05;;;;;;;9.80;6.10;;;;;;;7.20;96.63;94911.50;6132242;23;20626;-80
2023/11/13 00:55:31;;;;;;;8.57;5.60;;;;;;;7.18;97.00;94910.84;6156360;23;20191;-79
2023/11/13 00:57:56;;;;;;;7.60;5.23;;;;;;;7.20;96.97;94896.00;6132003;23;20163;-79
2023/11/13 01:00:21;;;;;;;9.23;6.07;;;;;;;7.23;96.90;94901.69;6132243;23;20186;-81
2023/11/13 01:02:47;;;;;;;6.73;5.13;;;;;;;7.27;97.94;94897.06;6131952;23;20186;-80
2023/11/13 01:05:13;;;;;;;6.73;5.03;;;;;;;7.32;96.90;94902.59;6131841;23;20174;-79
2023/11/13 01:07:38;;;;;;;7.23;4.83;;;;;;;7.31;97.51;94908.72;6157007;23;20162;-79
2023/11/13 01:10:05;;;;;;;6.50;4.80;;;;;;;7.36;97.21;94903.97;6157229;23;20202;-80
2023/11/13 01:12:30;;;;;;;6.43;4.40;;;;;;;7.38;97.67;94907.22;6179792;23;20366;-79
2023/11/13 01:14:55;;;;;;;7.10;4.80;;;;;;;7.32;97.59;94915.50;6159559;23;20147;-80
2023/11/13 01:17:21;;;;;;;6.03;4.73;;;;;;;7.39;96.77;94919.16;6184223;23;20143;-80
2023/11/13 01:19:47;;;;;;;5.93;5.07;;;;;;;7.30;97.23;94917.44;6180250;23;20158;-80
2023/11/13 01:22:12;;;;;;;9.30;5.47;;;;;;;7.19;96.59;94912.47;6163884;23;20178;-81
2023/11/13 01:24:37;;;;;;;5.43;4.73;;;;;;;7.19;95.41;94902.13;6163311;23;20185;-81
2023/11/13 01:27:03;;;;;;;6.40;5.20;;;;;;;7.21;96.10;94900.22;6162888;23;20661;-80
2023/11/13 01:29:28;;;;;;;7.10;5.13;;;;;;;7.24;96.69;94897.34;6190076;23;20171;-81
2023/11/13 01:31:54;;;;;;;7.23;4.80;;;;;;;7.33;96.89;94891.31;6162713;23;20182;-80
2023/11/13 01:34:20;;;;;;;7.80;4.50;;;;;;;7.32;97.67;94881.94;6163055;23;20242;-81
2023/11/13 01:36:46;;;;;;;9.33;4.50;;;;;;;7.37;97.77;94880.56;6163694;23;20208;-80
2023/11/13 01:39:12;;;;;;;8.07;4.67;;;;;;;7.36;98.85;94875.53;6163803;23;20159;-80
2023/11/13 01:41:38;;;;;;;10.23;5.00;;;;;;;7.41;98.42;94873.31;6161504;23;20181;-80
2023/11/13 01:44:07;;;;;;;6.60;5.00;;;;;;;7.44;98.01;94870.47;6158728;23;20174;-79
2023/11/13 01:46:32;;;;;;;9.13;5.30;;;;;;;7.49;97.47;94870.03;6158411;23;20166;-79
2023/11/13 01:48:59;;;;;;;5.33;4.63;;;;;;;7.50;98.04;94877.63;6159177;23;20163;-80
2023/11/13 01:51:25;;;;;;;6.80;5.40;;;;;;;7.51;98.29;94876.69;6134354;23;20201;-79
2023/11/13 01:53:51;;;;;;;7.60;4.97;;;;;;;7.55;98.00;94872.84;6159273;23;20595;-79
2023/11/13 01:56:17;;;;;;;7.63;5.37;;;;;;;7.54;97.85;94873.00;6158872;23;20151;-79
2023/11/13 01:58:43;;;;;;;7.30;4.93;;;;;;;7.49;98.27;94872.59;6134202;23;20513;-80
2023/11/13 02:01:09;;;;;;;8.87;5.40;;;;;;;7.53;98.18;94869.59;6158725;23;20175;-80
2023/11/13 02:03:34;;;;;;;7.30;4.90;;;;;;;7.50;98.12;94879.41;6134466;23;20180;-80
2023/11/13 02:06:00;;;;;;;6.93;4.60;;;;;;;7.53;99.46;94873.97;6158193;23;20171;-79
2023/11/13 02:08:26;;;;;;;7.30;4.87;;;;;;;7.47;99.16;94877.94;6158496;23;20162;-79
2023/11/13 02:10:51;;;;;;;7.40;4.77;;;;;;;7.50;99.37;94862.13;6158674;23;20487;-80
2023/11/13 02:13:16;;;;;;;7.67;5.53;;;;;;;7.52;99.34;94852.47;6159043;23;20181;-80
2023/11/13 02:15:42;;;;;;;5.93;4.57;;;;;;;7.54;99.30;94836.81;6133645;23;20547;-80
2023/11/13 02:18:08;;;;;;;5.63;4.57;;;;;;;7.60;99.28;94842.22;6134432;23;20249;-80
2023/11/13 02:20:34;;;;;;;5.80;5.00;;;;;;;7.61;99.52;94838.69;6159642;23;20244;-80
2023/11/13 02:23:00;;;;;;;6.63;4.23;;;;;;;7.71;98.15;94827.47;6159428;23;20183;-79
2023/11/13 02:25:26;;;;;;;6.10;4.70;;;;;;;7.69;98.59;94827.63;6158027;23;20166;-80
2023/11/13 02:27:57;;;;;;;3.63;3.17;;;;;;;7.74;99.67;94827.97;6134649;23;20159;-81
2023/11/13 02:30:23;;;;;;;4.97;3.33;;;;;;;7.75;100.00;94831.38;6159296;23;20499;-78
2023/11/13 02:32:48;;;;;;;3.13;2.20;;;;;;;7.84;100.00;94833.06;6158666;23;20154;-79
2023/11/13 02:35:14;;;;;;;2.50;2.00;;;;;;;7.95;100.00;94825.06;6158118;23;20162;-79
2023/11/13 02:37:40;;;;;;;1.53;1.43;;;;;;;8.06;100.00;94813.72;6158440;23;20161;-80
2023/11/13 02:40:09;;;;;;;1.90;1.80;;;;;;;8.20;100.00;94815.72;6133876;23;20197;-80
2023/11/13 02:42:35;;;;;;;2.23;1.30;;;;;;;8.21;100.00;94813.00;6158395;23;20361;-80
2023/11/13 02:45:01;;;;;;;1.50;1.40;;;;;;;8.27;100.00;94809.00;6132958;23;20213;-79
2023/11/13 02:47:26;;;;;;;2.30;1.00;;;;;;;8.54;100.00;94805.47;6134067;23;20167;-80
2023/11/13 02:49:51;;;;;;;2.10;1.20;;;;;;;8.69;100.00;94814.31;6133724;23;20658;-80
2023/11/13 02:52:17;;;;;;;1.03;0.80;;;;;;;8.76;100.00;94823.09;6158326;23;20158;-79
2023/11/13 02:54:42;;;;;;;0.97;0.90;;;;;;;9.01;100.00;94836.97;6133024;23;20162;-79
2023/11/13 02:57:07;;;;;;;0.80;0.70;;;;;;;9.03;100.00;94826.44;6133554;23;20197;-81
2023/11/13 02:59:33;;;;;;;1.10;1.00;;;;;;;9.03;100.00;94829.03;6158269;23;20245;-79
2023/11/13 03:01:58;;;;;;;0.80;0.80;;;;;;;9.26;100.00;94839.63;6133543;23;20154;-79
2023/11/13 03:04:23;;;;;;;1.03;0.80;;;;;;;9.30;100.00;94838.38;6185081;23;20182;-79
2023/11/13 03:06:49;;;;;;;1.20;0.73;;;;;;;9.40;100.00;94838.22;6158218;23;20154;-79
2023/11/13 03:09:14;;;;;;;2.80;0.80;;;;;;;9.37;100.00;94847.16;6133686;23;20182;-80
2023/11/13 03:11:39;;;;;;;5.70;1.33;;;;;;;9.43;100.00;94858.66;6158480;23;20175;-80
2023/11/13 03:14:05;;;;;;;6.23;1.50;;;;;;;9.60;100.00;94862.91;6133550;23;20496;-78
2023/11/13 03:16:30;;;;;;;5.40;1.30;;;;;;;9.64;100.00;94848.69;6133233;23;20585;-80
2023/11/13 03:18:55;;;;;;;5.77;1.40;;;;;;;9.71;100.00;94849.63;6184864;23;20181;-80
2023/11/13 03:21:21;;;;;;;8.37;1.90;;;;;;;9.60;100.00;94861.13;6158469;23;20178;-80
2023/11/13 03:23:46;;;;;;;11.07;1.90;;;;;;;9.75;100.00;94860.53;6133438;23;20174;-80
2023/11/13 03:26:11;;;;;;;4.10;1.73;;;;;;;9.68;100.00;94862.94;6157616;23;20154;-81
2023/11/13 03:28:36;;;;;;;10.67;1.97;;;;;;;9.80;100.00;94860.84;6134182;23;20158;-80
2023/11/13 03:31:02;;;;;;;7.97;1.83;;;;;;;9.64;100.00;94869.41;6157940;23;20171;-79
2023/11/13 03:33:27;;;;;;;7.13;1.77;;;;;;;9.74;100.00;94858.91;6158119;23;20554;-79
2023/11/13 03:35:52;;;;;;;8.97;2.00;;;;;;;9.81;100.00;94871.06;6157491;23;20159;-80
2023/11/13 03:38:18;;;;;;;9.43;2.07;;;;;;;9.78;100.00;94861.00;6133978;23;20163;-80
2023/11/13 03:40:43;;;;;;;5.93;1.60;;;;;;;9.89;100.00;94865.91;6158357;23;20228;-79
2023/11/13 03:43:09;;;;;;;6.07;1.83;;;;;;;9.96;100.00;94860.06;6157912;23;20193;-80
2023/11/13 03:45:34;;;;;;;9.00;2.00;;;;;;;9.93;100.00;94879.34;6157387;23;20170;-79
2023/11/13 03:48:00;;;;;;;5.20;1.80;;;;;;;9.91;99.85;94871.75;6133688;23;20161;-81
2023/11/13 03:50:25;;;;;;;7.13;2.30;;;;;;;9.89;99.60;94884.06;6158218;23;20177;-79
2023/11/13 03:52:51;;;;;;;10.70;2.00;;;;;;;9.91;99.03;94876.94;6184621;23;20230;-80
2023/11/13 03:55:16;;;;;;;9.30;2.50;;;;;;;9.94;99.22;94884.38;6133242;23;20185;-81
2023/11/13 03:57:42;;;;;;;8.33;2.40;;;;;;;9.93;98.66;94884.53;6158205;23;20151;-79
2023/11/13 04:00:07;;;;;;;13.07;2.73;;;;;;;9.86;98.92;94873.97;6133554;23;20182;-81
2023/11/13 04:02:33;;;;;;;9.90;2.70;;;;;;;9.91;98.79;94881.31;6159136;23;20182;-80
2023/11/13 04:04:58;;;;;;;12.03;2.50;;;;;;;9.88;99.19;94879.81;6157523;23;20167;-80
2023/11/13 04:07:24;;;;;;;10.30;2.33;;;;;;;9.89;99.00;94884.06;6158859;23;20645;-80
2023/11/13 04:09:49;;;;;;;10.50;2.30;;;;;;;9.90;99.11;94895.25;6159032;23;20214;-81
2023/11/13 04:12:15;;;;;;;9.80;2.60;;;;;;;9.86;99.50;94902.50;6159111;23;20186;-79
2023/11/13 04:14:40;;;;;;;11.20;2.70;;;;;;;9.91;99.45;94915.81;6158216;23;20161;-79
2023/11/13 04:17:07;;;;;;;7.73;2.77;;;;;;;10.00;99.18;94900.28;6133044;23;20162;-80
2023/11/13 04:19:32;;;;;;;9.97;2.30;;;;;;;10.00;98.57;94902.88;6157767;23;20178;-79
2023/11/13 04:21:58;;;;;;;15.63;3.63;;;;;;;9.90;99.31;94900.44;6157854;23;20532;-79
2023/11/13 04:24:23;;;;;;;13.37;2.93;;;;;;;9.83;98.64;94918.41;6133717;23;20591;-79
2023/11/13 04:26:49;;;;;;;15.83;3.30;;;;;;;9.87;97.89;94909.31;6157249;23;20229;-80
2023/11/13 04:29:14;;;;;;;15.87;2.90;;;;;;;10.00;96.83;94915.84;6159145;23;20493;-80
2023/11/13 04:31:40;;;;;;;11.93;2.63;;;;;;;9.99;96.34;94909.84;6132804;23;20174;-78
2023/11/13 04:34:05;;;;;;;15.07;3.63;;;;;;;9.93;96.53;94916.47;6157172;23;20155;-80
2023/11/13 04:36:32;;;;;;;11.53;3.33;;;;;;;10.00;95.85;94921.03;6157998;23;20162;-81
2023/11/13 04:38:57;;;;;;;11.07;2.67;;;;;;;9.91;96.29;94923.59;6158387;23;20480;-80
2023/11/13 04:41:23;;;;;;;18.53;3.27;;;;;;;10.00;95.84;94921.03;6158855;23;20182;-79
2023/11/13 04:43:49;;;;;;;18.17;3.13;;;;;;;10.03;95.69;94928.50;6133162;23;20181;-79
2023/11/13 04:46:15;;;;;;;17.00;3.20;;;;;;;9.82;96.96;94924.56;6157070;23;20158;-80
2023/11/13 04:48:40;;;;;;;13.50;3.03;;;;;;;9.92;96.18;94930.41;6157494;23;20241;-80
2023/11/13 04:51:06;;;;;;;16.77;3.67;;;;;;;9.91;95.78;94933.97;6132460;23;20245;-79
2023/11/13 04:53:32;;;;;;;14.07;3.30;;;;;;;9.97;95.53;94931.72;6157021;23;20147;-80
2023/11/13 04:55:57;;;;;;;14.77;3.70;;;;;;;9.93;95.58;94924.25;6131681;23;20651;-79
2023/11/13 04:58:22;;;;;;;13.03;3.10;;;;;;;9.90;95.33;94947.13;6157115;23;20500;-79
2023/11/13 05:00:48;;;;;;;19.00;3.87;;;;;;;10.06;94.25;94947.13;6156765;23;20178;-80
2023/11/13 05:03:14;;;;;;;20.33;3.40;;;;;;;10.00;94.38;94942.59;6132152;23;20209;-80
2023/11/13 05:05:39;;;;;;;19.83;3.97;;;;;;;9.98;93.83;94948.88;6131580;23;20180;-80
2023/11/13 05:08:05;;;;;;;14.80;3.50;;;;;;;10.21;93.41;94957.72;6157114;23;20230;-79
2023/11/13 05:10:32;;;;;;;11.33;3.00;;;;;;;10.05;94.04;94945.50;6157068;23;20633;-80
2023/11/13 05:12:57;;;;;;;15.70;4.47;;;;;;;10.19;92.94;94951.88;6156897;23;20154;-80
2023/11/13 05:15:23;;;;;;;14.00;4.40;;;;;;;10.04;94.53;94948.25;6131634;23;20171;-79
2023/11/13 05:17:48;;;;;;;22.40;3.73;;;;;;;9.99;94.14;94948.75;6132060;23;20173;-80
2023/11/13 05:20:14;;;;;;;18.30;4.20;;;;;;;10.14;93.41;94938.56;6157056;23;20178;-79
2023/11/13 05:22:39;;;;;;;19.30;3.63;;;;;;;10.05;93.54;94931.72;6157191;23;20185;-79
2023/11/13 05:25:05;;;;;;;23.37;5.07;;;;;;;10.08;93.31;94927.06;6156203;23;20170;-79
2023/11/13 05:27:30;;;;;;;20.50;4.17;;;;;;;10.14;92.77;94928.19;6183373;23;20159;-81
2023/11/13 05:29:55;;;;;;;18.37;3.87;;;;;;;10.19;92.74;94920.75;6132254;23;20261;-80
2023/11/13 05:32:20;;;;;;;24.37;4.37;;;;;;;9.93;93.65;94937.22;6155918;23;20159;-80
2023/11/13 05:34:46;;;;;;;17.17;4.07;;;;;;;10.05;92.88;94939.50;6131822;23;20173;-80
2023/11/13 05:37:12;;;;;;;20.73;5.03;;;;;;;10.12;92.49;94945.69;6131339;23;20159;-80
2023/11/13 05:39:38;;;;;;;16.93;4.20;;;;;;;10.08;92.66;94945.22;6182808;23;20224;-80
2023/11/13 05:42:03;;;;;;;14.30;4.07;;;;;;;10.01;92.80;94971.94;6156582;23;20618;-79
2023/11/13 05:44:28;;;;;;;17.43;4.13;;;;;;;10.13;92.57;94952.50;6156807;23;20249;-79
2023/11/13 05:46:54;;;;;;;17.27;4.07;;;;;;;10.32;91.19;94952.22;6182761;23;20618;-79
2023/11/13 05:49:19;;;;;;;18.33;4.27;;;;;;;10.19;91.79;94951.88;6157103;23;20201;-79
2023/11/13 05:51:46;;;;;;;14.83;3.63;;;;;;;10.27;91.77;94954.50;6131810;23;20186;-79
2023/11/13 05:54:12;;;;;;;27.07;5.17;;;;;;;10.22;91.90;94951.56;6134413;23;20155;-79
2023/11/13 05:56:37;;;;;;;18.97;3.97;;;;;;;10.13;91.54;94942.13;6131803;23;20650;-80
2023/11/13 05:59:03;;;;;;;21.07;4.60;;;;;;;10.31;90.01;94940.22;6158289;23;20155;-80
2023/11/13 06:01:31;;;;;;;18.73;4.87;;;;;;;10.27;90.06;94943.31;6166612;23;20184;-80
2023/11/13 06:03:59;;;;;;;16.77;3.83;;;;;;;10.28;90.02;94945.75;6168027;23;20194;-82
2023/11/13 06:06:25;;;;;;;24.70;4.27;;;;;;;10.32;90.07;94952.22;6204207;23;20147;-81
2023/11/13 06:08:50;;;;;;;18.93;3.47;;;;;;;10.33;90.29;94953.03;6146421;23;20162;-79
2023/11/13 06:11:15;;;;;;;18.10;4.50;;;;;;;10.30;90.35;94948.19;6163588;23;20544;-79
2023/11/13 06:13:41;;;;;;;17.40;4.53;;;;;;;10.34;90.52;94954.69;6135316;23;20151;-83
2023/11/13 06:16:06;;;;;;;20.90;4.13;;;;;;;10.17;91.66;94966.78;6159311;23;20726;-79
2023/11/13 06:18:34;;;;;;;20.07;4.00;;;;;;;10.24;91.72;94959.19;6188205;23;20178;-80
2023/11/13 06:21:00;;;;;;;15.80;4.40;;;;;;;10.21;91.67;94958.53;6161848;23;20230;-81
2023/11/13 06:23:25;;;;;;;23.03;4.13;;;;;;;10.10;92.66;94952.81;6161599;23;20174;-79
2023/11/13 06:25:50;;;;;;;17.90;4.20;;;;;;;10.12;92.49;94956.06;6137920;23;20158;-81
2023/11/13 06:28:16;;;;;;;25.00;4.53;;;;;;;10.22;92.01;94954.16;6164222;23;20632;-81
2023/11/13 06:30:43;;;;;;;19.03;4.10;;;;;;;10.14;92.19;94954.94;6138473;23;20177;-82
2023/11/13 06:33:09;;;;;;;20.70;3.57;;;;;;;10.13;92.63;94949.91;6163187;23;20147;-81
2023/11/13 06:35:35;;;;;;;17.13;3.90;;;;;;;10.20;92.42;94946.53;6157880;23;20159;-81
2023/11/13 06:38:00;;;;;;;18.07;3.37;;;;;;;10.14;92.77;94954.94;6134960;23;20250;-79
2023/11/13 06:40:26;;;;;;;14.60;3.63;;;;;;;10.12;92.58;94967.25;6187208;23;20174;-82
2023/11/13 06:42:51;;;;;;;16.67;4.07;;;;;;;10.13;93.10;94968.06;6136681;23;20182;-80
2023/11/13 06:45:16;;;;;;;17.03;3.97;;;;;;;10.15;92.99;94974.72;6161559;23;20162;-84
2023/11/13 06:47:43;;;;;;;18.70;4.10;;;;;;;10.03;93.37;94970.81;6139070;23;20246;-84
2023/11/13 06:50:08;;;;;;;20.10;3.70;;;;;;;10.03;94.34;94973.41;6162509;23;20182;-83
2023/11/13 06:52:34;;;;;;;15.27;3.57;;;;;;;10.04;93.76;94974.22;6137549;23;20166;-85
2023/11/13 06:54:59;;;;;;;20.33;3.67;;;;;;;10.00;93.84;94973.72;6137226;23;20155;-84
2023/11/13 06:57:27;;;;;;;15.93;4.10;;;;;;;10.06;93.17;94982.63;6137222;23;20182;-84
2023/11/13 06:59:53;;;;;;;14.27;3.80;;;;;;;10.05;92.64;94986.19;6137243;23;20158;-85
2023/11/13 07:02:21;;;;;;;12.37;2.80;;;;;;;9.92;92.96;94991.84;6137423;23;20181;-83
2023/11/13 07:04:50;;;;;;;8.23;2.73;;;;;;;9.82;92.09;95001.53;6163408;23;20155;-83
2023/11/13 07:07:15;;;;;;;12.13;2.50;;;;;;;9.76;91.36;94995.19;6137372;23;20266;-80
2023/11/13 07:09:41;;;;;;;8.60;2.10;;;;;;;9.76;91.31;95007.34;6163041;23;20158;-80
2023/11/13 07:12:07;;;;;;;12.83;3.10;;;;;;;9.76;91.04;94999.56;6163558;23;20161;-80
2023/11/13 07:14:33;;;;;;;8.87;2.43;;;;;;;9.78;91.01;94995.84;6135370;23;20513;-80
2023/11/13 07:16:58;;;;;;;7.03;2.37;;;;;;;9.78;90.84;94995.03;6136562;23;20159;-80
2023/11/13 07:19:24;;;;;;;10.43;2.53;;;;;;;9.84;90.20;94997.81;6156777;23;20193;-84
2023/11/13 07:21:49;;;;;;;11.07;3.03;;;;;;;9.76;90.57;94997.78;6135398;23;20182;-82
2023/11/13 07:24:14;;;;;;;11.90;2.47;;;;;;;9.66;91.21;95004.88;6159779;23;20194;-81
2023/11/13 07:26:40;;;;;;;10.97;2.77;;;;;;;9.63;91.37;95005.19;6185042;23;20155;-81
2023/11/13 07:29:05;;;;;;;10.10;1.93;;;;;;;9.64;91.53;95006.81;6186358;23;20158;-81
2023/11/13 07:31:30;;;;;;;9.03;2.63;;;;;;;9.74;91.82;94994.53;6134204;23;20197;-80
2023/11/13 07:33:56;;;;;;;6.47;2.10;;;;;;;9.76;90.88;95002.97;6134274;23;20169;-81
2023/11/13 07:36:25;;;;;;;7.60;1.97;;;;;;;9.69;91.53;94988.19;6158203;23;20225;-82
2023/11/13 07:38:50;;;;;;;10.10;2.53;;;;;;;9.55;91.89;94985.22;6158746;23;20167;-81
2023/11/13 07:41:16;;;;;;;8.00;2.20;;;;;;;9.56;91.37;94975.66;6134162;23;20181;-80
2023/11/13 07:43:43;;;;;;;9.20;2.33;;;;;;;9.62;91.25;94978.44;6159199;23;20171;-81
2023/11/13 07:46:09;;;;;;;6.03;1.87;;;;;;;9.73;90.88;94987.72;6157665;23;20151;-80
2023/11/13 07:48:35;;;;;;;8.73;2.13;;;;;;;9.62;91.14;94983.63;6160080;23;20150;-80
2023/11/13 07:51:05;;;;;;;8.60;2.37;;;;;;;9.66;91.20;94978.94;6161354;23;20201;-81
2023/11/13 07:53:31;;;;;;;6.37;1.90;;;;;;;9.78;90.76;94982.88;6135438;23;20625;-80
2023/11/13 07:55:56;;;;;;;6.33;1.87;;;;;;;9.73;91.14;94987.72;6134754;23;20163;-80
2023/11/13 07:58:22;;;;;;;7.50;2.07;;;;;;;9.77;90.55;94994.22;6160103;23;20155;-79
2023/11/13 08:00:52;;;;;;;7.97;2.50;;;;;;;9.75;90.83;94987.56;6159666;23;20244;-79
2023/11/13 08:03:18;;;;;;;8.13;2.10;;;;;;;9.63;91.42;94987.84;6159691;23;20201;-80
2023/11/13 08:05:44;;;;;;;6.83;1.87;;;;;;;9.71;91.84;94979.28;6157422;23;20163;-81
2023/11/13 08:08:12;;;;;;;6.97;2.30;;;;;;;9.73;91.67;94979.16;6158563;23;20508;-80
2023/11/13 08:10:37;;;;;;;8.70;2.63;;;;;;;9.62;92.46;94980.22;6158698;23;20179;-80
2023/11/13 08:13:03;;;;;;;6.17;2.40;;;;;;;9.71;92.21;94986.25;6132849;23;20158;-80
2023/11/13 08:15:29;;;;;;;6.67;2.07;;;;;;;9.74;91.93;94984.16;6158274;23;20204;-80
2023/11/13 08:17:55;;;;;;;8.00;1.73;;;;;;;9.67;92.63;94977.97;6134257;23;20173;-80
2023/11/13 08:20:25;;;;;;;5.50;1.90;;;;;;;9.77;92.27;94973.47;6134359;23;20190;-79
2023/11/13 08:22:51;;;;;;;6.90;1.90;;;;;;;9.77;92.73;94977.84;6158773;23;20622;-80
2023/11/13 08:25:17;;;;;;;7.17;1.90;;;;;;;9.68;93.11;94974.41;6132793;23;20313;-80
2023/11/13 08:27:43;;;;;;;6.77;1.80;;;;;;;9.58;93.94;94974.53;6133140;23;20838;-80
2023/11/13 08:30:10;;;;;;;5.57;1.63;;;;;;;9.67;93.58;94972.78;6157166;23;20181;-79
2023/11/13 08:32:37;;;;;;;5.67;1.70;;;;;;;9.67;93.25;94965.00;6133708;23;20173;-80
2023/11/13 08:35:04;;;;;;;8.27;2.10;;;;;;;9.74;93.46;94968.59;6157504;23;20158;-80
2023/11/13 08:37:31;;;;;;;5.90;1.50;;;;;;;9.68;93.77;94966.63;6158752;23;20598;-79
2023/11/13 08:39:56;;;;;;;6.73;1.63;;;;;;;9.69;94.42;94970.84;6158334;23;20178;-79
2023/11/13 08:42:22;;;;;;;4.60;1.90;;;;;;;9.39;96.19;94961.00;6158401;23;20165;-80
2023/11/13 08:44:48;;;;;;;6.30;1.97;;;;;;;9.61;94.96;94950.06;6133477;23;20171;-80
2023/11/13 08:47:15;;;;;;;8.00;1.70;;;;;;;9.58;95.65;94943.44;6157822;23;20158;-80
2023/11/13 08:49:41;;;;;;;7.60;2.30;;;;;;;9.55;96.65;94940.34;6158186;23;20168;-80
2023/11/13 08:52:08;;;;;;;3.40;1.60;;;;;;;9.59;96.64;94939.88;6132655;23;20496;-80
2023/11/13 08:54:35;;;;;;;6.80;2.07;;;;;;;9.51;97.51;94933.84;6132288;23;20166;-79
2023/11/13 08:57:06;;;;;;;8.00;2.00;;;;;;;9.69;96.81;94929.38;6156364;23;20633;-80
2023/11/13 08:59:32;;;;;;;7.40;1.73;;;;;;;9.73;96.63;94914.31;6133368;23;20177;-80
2023/11/13 09:01:57;;;;;;;5.70;1.80;;;;;;;9.66;97.63;94914.13;6156557;23;20735;-80
2023/11/13 09:04:23;;;;;;;5.17;1.97;;;;;;;9.82;97.10;94913.38;6132586;23;20199;-79
2023/11/13 09:06:50;;;;;;;4.37;1.70;;;;;;;9.70;97.98;94904.25;6156815;23;20162;-79
2023/11/13 09:09:15;;;;;;;5.93;2.00;;;;;;;9.85;97.42;94919.03;6156287;23;20473;-79
2023/11/13 09:11:41;;;;;;;6.67;2.13;;;;;;;9.75;99.79;94905.41;6155517;23;20229;-79
2023/11/13 09:14:10;;;;;;;5.23;1.93;;;;;;;9.70;100.00;94905.06;6157012;23;20162;-80
2023/11/13 09:16:38;;;;;;;8.03;2.23;;;;;;;10.21;100.00;94903.22;6156925;23;20178;-80
2023/11/13 09:19:04;;;;;;;6.10;1.93;;;;;;;10.33;99.74;94904.53;6125625;23;20617;-79
2023/11/13 09:21:30;;;;;;;9.77;2.93;;;;;;;10.63;99.68;94899.69;6128933;23;20174;-79
2023/11/13 09:23:55;;;;;;;6.83;2.37;;;;;;;10.66;100.00;94907.16;6154142;23;20260;-79
2023/11/13 09:26:21;;;;;;;10.80;2.97;;;;;;;10.91;100.00;94900.94;6156952;23;20225;-79
2023/11/13 09:28:46;;;;;;;12.23;2.10;;;;;;;11.33;97.95;94902.47;6134021;23;20158;-79
2023/11/13 09:31:11;;;;;;;5.77;2.10;;;;;;;11.38;97.62;94902.78;6157925;23;20175;-79
2023/11/13 09:33:39;;;;;;;7.13;2.50;;;;;;;11.49;97.64;94905.03;6156233;23;20540;-79
2023/11/13 09:36:06;;;;;;;6.77;2.73;;;;;;;11.58;96.83;94911.81;6156575;23;20795;-79
2023/11/13 09:38:31;;;;;;;4.97;2.27;;;;;;;11.51;97.48;94908.25;6132196;23;20166;-80
2023/11/13 09:41:01;;;;;;;3.97;1.77;;;;;;;11.64;97.65;94902.50;6132939;23;20182;-79
2023/11/13 09:43:35;;;;;;;8.50;2.03;;;;;;;11.77;97.04;94894.16;6158820;23;20194;-80
2023/11/13 09:46:06;;;;;;;4.67;1.90;;;;;;;11.72;97.73;94893.84;6132822;23;20157;-80
2023/11/13 09:48:34;;;;;;;5.17;2.07;;;;;;;11.82;96.88;94879.69;6156964;23;20175;-78
2023/11/13 09:51:00;;;;;;;6.83;2.30;;;;;;;12.01;95.54;94878.44;6132089;23;20178;-78
2023/11/13 09:53:29;;;;;;;5.23;1.83;;;;;;;11.95;96.38;94894.75;6158904;23;20150;-79
2023/11/13 09:55:55;;;;;;;6.17;2.00;;;;;;;12.16;95.14;94887.13;6159329;23;20594;-80
2023/11/13 09:58:21;;;;;;;6.57;1.93;;;;;;;12.23;94.89;94892.44;6158541;23;20159;-80
2023/11/13 10:00:46;;;;;;;8.10;2.17;;;;;;;12.33;94.44;94893.03;6158087;23;20189;-79
2023/11/13 10:03:14;;;;;;;8.00;2.13;;;;;;;12.34;94.57;94886.00;6133352;23;20634;-79
2023/11/13 10:05:43;;;;;;;6.33;1.80;;;;;;;12.22;95.44;94890.81;6134010;23;20170;-80
2023/11/13 10:08:09;;;;;;;5.50;2.07;;;;;;;11.96;97.31;94898.16;6133919;23;20633;-79
2023/11/13 10:10:39;;;;;;;7.20;1.90;;;;;;;12.19;97.10;94896.38;6134089;23;20178;-80
2023/11/13 10:13:05;;;;;;;5.97;2.07;;;;;;;12.23;97.67;94884.63;6159108;23;20150;-80
2023/11/13 10:15:32;;;;;;;3.93;2.03;;;;;;;12.15;99.08;94874.28;6157973;23;20245;-80
2023/11/13 10:17:59;;;;;;;4.67;1.90;;;;;;;12.25;98.33;94877.47;6158605;23;20212;-79
2023/11/13 10:20:26;;;;;;;3.83;1.93;;;;;;;12.30;98.68;94880.34;6134434;23;20202;-80
2023/11/13 10:23:03;;;;;;;6.93;2.17;;;;;;;12.29;98.91;94860.53;6158519;23;20182;-80
2023/11/13 10:25:56;;;;;;;6.70;1.80;;;;;;;12.33;99.25;94866.19;6158046;23;20516;-80
2023/11/13 10:28:33;;;;;;;5.70;1.53;;;;;;;12.43;98.54;94869.34;6155157;23;20186;-80
2023/11/13 10:30:59;;;;;;;8.07;1.70;;;;;;;12.36;99.67;94865.81;6159259;23;20183;-78
2023/11/13 10:33:26;;;;;;;5.07;1.50;;;;;;;12.40;99.15;94846.28;6159558;23;20157;-79
2023/11/13 10:35:52;;;;;;;4.77;1.57;;;;;;;12.43;97.70;94845.91;6158231;23;20170;-79
2023/11/13 10:38:20;;;;;;;4.40;1.60;;;;;;;12.40;98.39;94835.84;6134130;23;20162;-79
2023/11/13 10:40:59;;;;;;;3.13;1.50;;;;;;;12.67;97.60;94827.47;6134685;23;20175;-79
2023/11/13 10:43:30;;;;;;;4.40;1.53;;;;;;;12.62;97.47;94823.75;6133729;23;20198;-79
2023/11/13 10:45:56;;;;;;;3.43;1.60;;;;;;;12.90;96.05;94824.00;6134115;23;20166;-79
2023/11/13 10:48:32;;;;;;;5.50;1.60;;;;;;;12.90;95.54;94824.00;6160092;23;20150;-80
2023/11/13 10:51:03;;;;;;;4.10;1.83;;;;;;;12.91;95.36;94821.22;6158581;23;20177;-77
2023/11/13 10:53:31;;;;;;;4.37;1.80;;;;;;;12.91;95.35;94817.78;6137021;23;20230;-79
2023/11/13 10:55:58;;;;;;;5.70;1.70;;;;;;;12.85;95.55;94829.72;6157894;23;20250;-81
2023/11/13 10:58:23;;;;;;;2.77;1.57;;;;;;;12.82;96.08;94834.50;6158499;23;20155;-79
2023/11/13 11:00:49;;;;;;;3.70;1.50;;;;;;;12.84;97.41;94817.69;6134022;23;20244;-79
2023/11/13 11:03:15;;;;;;;4.57;1.77;;;;;;;12.56;99.37;94820.09;6140835;23;20182;-79
2023/11/13 11:05:41;;;;;;;4.80;1.60;;;;;;;12.75;99.25;94829.19;6168639;23;20209;-79
2023/11/13 11:08:07;;;;;;;2.53;1.30;;;;;;;12.63;99.78;94841.00;6173757;23;20155;-82
2023/11/13 11:10:32;;;;;;;2.40;1.27;;;;;;;12.50;100.00;94831.22;6144260;23;20182;-80
2023/11/13 11:13:08;;;;;;;4.33;1.50;;;;;;;12.62;100.00;94829.78;6163792;23;20150;-80
2023/11/13 11:15:49;;;;;;;2.10;1.40;;;;;;;12.76;100.00;94841.22;6138782;23;20146;-79
2023/11/13 11:18:27;;;;;;;3.87;1.53;;;;;;;12.78;100.00;94828.81;6163626;23;20173;-79
2023/11/13 11:21:10;;;;;;;3.23;1.20;;;;;;;12.68;100.00;94818.66;6163857;23;20257;-79
2023/11/13 11:23:51;;;;;;;2.13;1.30;;;;;;;12.77;100.00;94809.78;6163710;23;20174;-80
2023/11/13 11:26:19;;;;;;;3.63;1.43;;;;;;;12.98;99.18;94806.44;6138849;23;20182;-80
2023/11/13 11:28:48;;;;;;;1.83;0.90;;;;;;;12.75;100.00;94797.91;6163943;23;20158;-78
2023/11/13 11:31:43;;;;;;;2.53;1.33;;;;;;;12.87;99.36;94793.88;6165002;23;20182;-79